sensor_id;sensor_type;location;lat;lon;timestamp;P1;durP1;ratioP1;P2;durP2;ratioP2
44139;SDS011;29803;51.048;4.686;2023-06-26T00:01:34;9.10;;;4.55;;
44139;SDS011;29803;51.048;4.686;2023-06-26T00:04:04;7.53;;;4.57;;
44139;SDS011;29803;51.048;4.686;2023-06-26T00:06:35;10.02;;;4.95;;
44139;SDS011;29803;51.048;4.686;2023-06-26T00:09:06;9.73;;;5.00;;
44139;SDS011;29803;51.048;4.686;2023-06-26T00:11:36;9.50;;;4.00;;
44139;SDS011;29803;51.048;4.686;2023-06-26T00:14:07;7.20;;;3.45;;
44139;SDS011;29803;51.048;4.686;2023-06-26T00:16:37;8.32;;;3.90;;
44139;SDS011;29803;51.048;4.686;2023-06-26T00:19:08;8.68;;;3.97;;
44139;SDS011;29803;51.048;4.686;2023-06-26T00:21:38;9.18;;;4.38;;
44139;SDS011;29803;51.048;4.686;2023-06-26T00:24:09;8.57;;;4.53;;
44139;SDS011;29803;51.048;4.686;2023-06-26T00:26:39;6.65;;;4.47;;
44139;SDS011;29803;51.048;4.686;2023-06-26T00:29:10;7.03;;;4.32;;
44139;SDS011;29803;51.048;4.686;2023-06-26T00:31:40;8.50;;;5.13;;
44139;SDS011;29803;51.048;4.686;2023-06-26T00:34:11;9.13;;;4.47;;
44139;SDS011;29803;51.048;4.686;2023-06-26T00:36:41;9.88;;;4.30;;
44139;SDS011;29803;51.048;4.686;2023-06-26T00:39:13;8.73;;;4.47;;
44139;SDS011;29803;51.048;4.686;2023-06-26T00:41:44;10.13;;;4.68;;
44139;SDS011;29803;51.048;4.686;2023-06-26T00:44:14;10.65;;;4.57;;
44139;SDS011;29803;51.048;4.686;2023-06-26T00:46:45;10.90;;;4.68;;
44139;SDS011;29803;51.048;4.686;2023-06-26T00:49:15;7.30;;;4.22;;
44139;SDS011;29803;51.048;4.686;2023-06-26T00:51:46;8.75;;;4.53;;
44139;SDS011;29803;51.048;4.686;2023-06-26T00:54:17;10.43;;;4.03;;
44139;SDS011;29803;51.048;4.686;2023-06-26T00:56:50;9.35;;;4.60;;
44139;SDS011;29803;51.048;4.686;2023-06-26T00:59:20;8.85;;;4.68;;
44139;SDS011;29803;51.048;4.686;2023-06-26T01:01:51;8.88;;;4.43;;
44139;SDS011;29803;51.048;4.686;2023-06-26T01:04:21;6.38;;;4.40;;
44139;SDS011;29803;51.048;4.686;2023-06-26T01:06:57;10.60;;;4.65;;
44139;SDS011;29803;51.048;4.686;2023-06-26T01:09:29;8.52;;;4.53;;
44139;SDS011;29803;51.048;4.686;2023-06-26T01:12:01;9.30;;;4.50;;
44139;SDS011;29803;51.048;4.686;2023-06-26T01:14:33;10.65;;;4.03;;
44139;SDS011;29803;51.048;4.686;2023-06-26T01:17:06;9.15;;;4.57;;
44139;SDS011;29803;51.048;4.686;2023-06-26T01:19:38;11.20;;;4.75;;
44139;SDS011;29803;51.048;4.686;2023-06-26T01:27:35;8.70;;;4.70;;
44139;SDS011;29803;51.048;4.686;2023-06-26T01:30:06;8.65;;;4.63;;
44139;SDS011;29803;51.048;4.686;2023-06-26T01:32:38;12.45;;;5.00;;
44139;SDS011;29803;51.048;4.686;2023-06-26T01:35:10;8.55;;;4.78;;
44139;SDS011;29803;51.048;4.686;2023-06-26T01:37:41;7.22;;;4.07;;
44139;SDS011;29803;51.048;4.686;2023-06-26T01:40:11;9.50;;;4.32;;
44139;SDS011;29803;51.048;4.686;2023-06-26T01:42:42;10.07;;;4.55;;
44139;SDS011;29803;51.048;4.686;2023-06-26T01:45:15;9.02;;;4.38;;
44139;SDS011;29803;51.048;4.686;2023-06-26T01:47:55;7.78;;;4.80;;
44139;SDS011;29803;51.048;4.686;2023-06-26T01:50:29;9.45;;;4.75;;
44139;SDS011;29803;51.048;4.686;2023-06-26T01:53:13;7.32;;;4.30;;
44139;SDS011;29803;51.048;4.686;2023-06-26T01:55:55;9.25;;;4.35;;
44139;SDS011;29803;51.048;4.686;2023-06-26T01:58:46;12.35;;;4.10;;
44139;SDS011;29803;51.048;4.686;2023-06-26T02:01:18;10.93;;;4.68;;
44139;SDS011;29803;51.048;4.686;2023-06-26T02:03:51;10.05;;;4.75;;
44139;SDS011;29803;51.048;4.686;2023-06-26T02:06:22;6.65;;;4.43;;
44139;SDS011;29803;51.048;4.686;2023-06-26T02:08:53;10.75;;;4.57;;
44139;SDS011;29803;51.048;4.686;2023-06-26T02:11:26;7.18;;;4.20;;
44139;SDS011;29803;51.048;4.686;2023-06-26T02:13:57;8.95;;;4.30;;
44139;SDS011;29803;51.048;4.686;2023-06-26T02:16:28;8.80;;;4.80;;
44139;SDS011;29803;51.048;4.686;2023-06-26T02:18:59;10.60;;;4.38;;
44139;SDS011;29803;51.048;4.686;2023-06-26T02:21:29;12.07;;;4.20;;
44139;SDS011;29803;51.048;4.686;2023-06-26T02:24:00;13.18;;;4.90;;
44139;SDS011;29803;51.048;4.686;2023-06-26T02:26:32;6.78;;;3.97;;
44139;SDS011;29803;51.048;4.686;2023-06-26T02:29:02;8.32;;;4.32;;
44139;SDS011;29803;51.048;4.686;2023-06-26T02:31:33;10.43;;;5.30;;
44139;SDS011;29803;51.048;4.686;2023-06-26T02:34:03;9.02;;;4.22;;
44139;SDS011;29803;51.048;4.686;2023-06-26T02:36:34;8.48;;;4.07;;
44139;SDS011;29803;51.048;4.686;2023-06-26T02:39:05;13.23;;;5.35;;
44139;SDS011;29803;51.048;4.686;2023-06-26T02:41:36;15.38;;;4.65;;
44139;SDS011;29803;51.048;4.686;2023-06-26T02:44:06;10.80;;;4.00;;
44139;SDS011;29803;51.048;4.686;2023-06-26T02:46:37;9.77;;;4.40;;
44139;SDS011;29803;51.048;4.686;2023-06-26T02:49:07;11.35;;;4.28;;
44139;SDS011;29803;51.048;4.686;2023-06-26T02:51:38;11.93;;;4.32;;
44139;SDS011;29803;51.048;4.686;2023-06-26T02:54:08;10.98;;;4.20;;
44139;SDS011;29803;51.048;4.686;2023-06-26T02:56:39;15.88;;;4.78;;
44139;SDS011;29803;51.048;4.686;2023-06-26T02:59:09;11.52;;;4.65;;
44139;SDS011;29803;51.048;4.686;2023-06-26T03:01:40;10.10;;;4.63;;
44139;SDS011;29803;51.048;4.686;2023-06-26T03:04:10;11.32;;;4.38;;
44139;SDS011;29803;51.048;4.686;2023-06-26T03:06:41;12.35;;;4.55;;
44139;SDS011;29803;51.048;4.686;2023-06-26T03:09:11;14.95;;;4.47;;
44139;SDS011;29803;51.048;4.686;2023-06-26T03:11:41;11.23;;;4.78;;
44139;SDS011;29803;51.048;4.686;2023-06-26T03:14:12;11.80;;;3.65;;
44139;SDS011;29803;51.048;4.686;2023-06-26T03:16:42;12.88;;;4.40;;
44139;SDS011;29803;51.048;4.686;2023-06-26T03:19:13;13.65;;;5.07;;
44139;SDS011;29803;51.048;4.686;2023-06-26T03:21:44;13.48;;;4.93;;
44139;SDS011;29803;51.048;4.686;2023-06-26T03:24:14;15.85;;;4.60;;
44139;SDS011;29803;51.048;4.686;2023-06-26T03:26:45;12.57;;;4.70;;
44139;SDS011;29803;51.048;4.686;2023-06-26T03:29:15;18.33;;;4.30;;
44139;SDS011;29803;51.048;4.686;2023-06-26T03:31:46;16.58;;;4.68;;
44139;SDS011;29803;51.048;4.686;2023-06-26T03:34:17;15.32;;;5.55;;
44139;SDS011;29803;51.048;4.686;2023-06-26T03:36:47;17.98;;;5.65;;
44139;SDS011;29803;51.048;4.686;2023-06-26T03:39:17;12.27;;;4.97;;
44139;SDS011;29803;51.048;4.686;2023-06-26T03:41:48;16.08;;;5.43;;
44139;SDS011;29803;51.048;4.686;2023-06-26T03:44:18;17.85;;;5.30;;
44139;SDS011;29803;51.048;4.686;2023-06-26T03:46:49;18.83;;;5.30;;
44139;SDS011;29803;51.048;4.686;2023-06-26T03:49:19;20.70;;;5.75;;
44139;SDS011;29803;51.048;4.686;2023-06-26T03:51:50;17.05;;;5.45;;
44139;SDS011;29803;51.048;4.686;2023-06-26T03:54:21;15.38;;;5.63;;
44139;SDS011;29803;51.048;4.686;2023-06-26T03:56:51;18.77;;;6.30;;
44139;SDS011;29803;51.048;4.686;2023-06-26T03:59:22;17.98;;;6.18;;
44139;SDS011;29803;51.048;4.686;2023-06-26T04:01:52;18.02;;;5.85;;
44139;SDS011;29803;51.048;4.686;2023-06-26T04:04:23;17.77;;;5.40;;
44139;SDS011;29803;51.048;4.686;2023-06-26T04:06:53;18.90;;;5.72;;
44139;SDS011;29803;51.048;4.686;2023-06-26T04:09:24;17.50;;;5.85;;
44139;SDS011;29803;51.048;4.686;2023-06-26T04:11:55;21.85;;;5.90;;
44139;SDS011;29803;51.048;4.686;2023-06-26T04:14:26;16.13;;;6.00;;
44139;SDS011;29803;51.048;4.686;2023-06-26T04:16:56;16.92;;;5.65;;
44139;SDS011;29803;51.048;4.686;2023-06-26T04:19:27;17.50;;;5.70;;
44139;SDS011;29803;51.048;4.686;2023-06-26T04:21:58;23.48;;;6.60;;
44139;SDS011;29803;51.048;4.686;2023-06-26T04:24:29;19.15;;;5.75;;
44139;SDS011;29803;51.048;4.686;2023-06-26T04:26:59;13.85;;;5.85;;
44139;SDS011;29803;51.048;4.686;2023-06-26T04:29:30;18.83;;;6.25;;
44139;SDS011;29803;51.048;4.686;2023-06-26T04:32:00;18.40;;;5.43;;
44139;SDS011;29803;51.048;4.686;2023-06-26T04:34:30;16.83;;;4.90;;
44139;SDS011;29803;51.048;4.686;2023-06-26T04:37:03;16.42;;;5.38;;
44139;SDS011;29803;51.048;4.686;2023-06-26T04:39:34;18.63;;;5.43;;
44139;SDS011;29803;51.048;4.686;2023-06-26T04:42:07;20.63;;;5.40;;
44139;SDS011;29803;51.048;4.686;2023-06-26T04:44:38;21.80;;;5.78;;
44139;SDS011;29803;51.048;4.686;2023-06-26T04:47:08;19.30;;;5.80;;
44139;SDS011;29803;51.048;4.686;2023-06-26T04:49:39;14.88;;;5.22;;
44139;SDS011;29803;51.048;4.686;2023-06-26T04:52:13;17.88;;;5.82;;
44139;SDS011;29803;51.048;4.686;2023-06-26T04:54:43;18.40;;;5.50;;
44139;SDS011;29803;51.048;4.686;2023-06-26T04:57:14;17.13;;;5.80;;
44139;SDS011;29803;51.048;4.686;2023-06-26T04:59:45;19.60;;;5.43;;
44139;SDS011;29803;51.048;4.686;2023-06-26T05:02:15;16.35;;;4.72;;
44139;SDS011;29803;51.048;4.686;2023-06-26T05:04:46;17.20;;;5.68;;
44139;SDS011;29803;51.048;4.686;2023-06-26T05:07:18;18.88;;;5.20;;
44139;SDS011;29803;51.048;4.686;2023-06-26T05:09:48;23.63;;;5.03;;
44139;SDS011;29803;51.048;4.686;2023-06-26T05:12:19;23.15;;;5.75;;
44139;SDS011;29803;51.048;4.686;2023-06-26T05:14:49;17.92;;;4.88;;
44139;SDS011;29803;51.048;4.686;2023-06-26T05:17:20;23.23;;;5.13;;
44139;SDS011;29803;51.048;4.686;2023-06-26T05:19:50;16.58;;;5.35;;
44139;SDS011;29803;51.048;4.686;2023-06-26T05:22:21;21.92;;;5.10;;
44139;SDS011;29803;51.048;4.686;2023-06-26T05:24:52;21.85;;;5.13;;
44139;SDS011;29803;51.048;4.686;2023-06-26T05:27:25;17.70;;;5.22;;
44139;SDS011;29803;51.048;4.686;2023-06-26T05:29:56;18.98;;;4.60;;
44139;SDS011;29803;51.048;4.686;2023-06-26T05:32:27;15.40;;;5.03;;
44139;SDS011;29803;51.048;4.686;2023-06-26T05:34:58;17.17;;;4.65;;
44139;SDS011;29803;51.048;4.686;2023-06-26T05:37:31;14.32;;;4.55;;
44139;SDS011;29803;51.048;4.686;2023-06-26T05:40:03;18.95;;;4.60;;
44139;SDS011;29803;51.048;4.686;2023-06-26T05:42:35;12.82;;;4.55;;
44139;SDS011;29803;51.048;4.686;2023-06-26T05:45:05;17.65;;;4.43;;
44139;SDS011;29803;51.048;4.686;2023-06-26T05:47:36;16.58;;;5.03;;
44139;SDS011;29803;51.048;4.686;2023-06-26T05:50:08;20.70;;;4.90;;
44139;SDS011;29803;51.048;4.686;2023-06-26T05:52:39;24.38;;;4.95;;
44139;SDS011;29803;51.048;4.686;2023-06-26T05:55:10;13.00;;;3.95;;
44139;SDS011;29803;51.048;4.686;2023-06-26T05:57:42;16.05;;;3.75;;
44139;SDS011;29803;51.048;4.686;2023-06-26T06:00:14;21.98;;;4.40;;
44139;SDS011;29803;51.048;4.686;2023-06-26T06:02:45;19.05;;;4.40;;
44139;SDS011;29803;51.048;4.686;2023-06-26T06:05:15;14.88;;;4.30;;
44139;SDS011;29803;51.048;4.686;2023-06-26T06:07:46;16.05;;;4.03;;
44139;SDS011;29803;51.048;4.686;2023-06-26T06:10:17;12.10;;;3.65;;
44139;SDS011;29803;51.048;4.686;2023-06-26T06:12:47;13.50;;;3.33;;
44139;SDS011;29803;51.048;4.686;2023-06-26T06:15:18;11.85;;;3.50;;
44139;SDS011;29803;51.048;4.686;2023-06-26T06:17:48;18.23;;;3.60;;
44139;SDS011;29803;51.048;4.686;2023-06-26T06:20:19;13.57;;;4.03;;
44139;SDS011;29803;51.048;4.686;2023-06-26T06:22:49;18.38;;;4.03;;
44139;SDS011;29803;51.048;4.686;2023-06-26T06:25:20;9.93;;;3.05;;
44139;SDS011;29803;51.048;4.686;2023-06-26T06:27:51;12.55;;;2.90;;
44139;SDS011;29803;51.048;4.686;2023-06-26T06:30:21;13.68;;;2.90;;
44139;SDS011;29803;51.048;4.686;2023-06-26T06:32:52;15.75;;;3.33;;
44139;SDS011;29803;51.048;4.686;2023-06-26T06:35:22;12.18;;;2.83;;
44139;SDS011;29803;51.048;4.686;2023-06-26T06:37:53;12.80;;;3.08;;
44139;SDS011;29803;51.048;4.686;2023-06-26T06:40:24;9.40;;;3.08;;
44139;SDS011;29803;51.048;4.686;2023-06-26T06:42:55;12.13;;;2.80;;
44139;SDS011;29803;51.048;4.686;2023-06-26T06:45:26;10.35;;;3.20;;
44139;SDS011;29803;51.048;4.686;2023-06-26T06:47:56;8.63;;;2.40;;
44139;SDS011;29803;51.048;4.686;2023-06-26T06:50:27;16.02;;;2.95;;
44139;SDS011;29803;51.048;4.686;2023-06-26T06:52:57;21.02;;;3.25;;
44139;SDS011;29803;51.048;4.686;2023-06-26T06:55:28;11.65;;;2.75;;
44139;SDS011;29803;51.048;4.686;2023-06-26T06:57:59;15.23;;;3.08;;
44139;SDS011;29803;51.048;4.686;2023-06-26T07:00:29;9.85;;;2.80;;
44139;SDS011;29803;51.048;4.686;2023-06-26T07:03:01;18.38;;;3.42;;
44139;SDS011;29803;51.048;4.686;2023-06-26T07:05:32;15.77;;;3.17;;
44139;SDS011;29803;51.048;4.686;2023-06-26T07:08:02;10.38;;;3.50;;
44139;SDS011;29803;51.048;4.686;2023-06-26T07:10:33;12.23;;;3.05;;
44139;SDS011;29803;51.048;4.686;2023-06-26T07:13:04;13.60;;;3.10;;
44139;SDS011;29803;51.048;4.686;2023-06-26T07:15:34;11.95;;;2.85;;
44139;SDS011;29803;51.048;4.686;2023-06-26T07:18:05;9.68;;;2.80;;
44139;SDS011;29803;51.048;4.686;2023-06-26T07:20:36;9.43;;;2.13;;
44139;SDS011;29803;51.048;4.686;2023-06-26T07:23:06;12.63;;;2.47;;
44139;SDS011;29803;51.048;4.686;2023-06-26T07:25:37;16.02;;;2.83;;
44139;SDS011;29803;51.048;4.686;2023-06-26T07:30:53;11.73;;;2.38;;
44139;SDS011;29803;51.048;4.686;2023-06-26T07:33:24;13.70;;;2.38;;
44139;SDS011;29803;51.048;4.686;2023-06-26T07:35:54;14.20;;;2.35;;
44139;SDS011;29803;51.048;4.686;2023-06-26T07:38:25;11.18;;;2.20;;
44139;SDS011;29803;51.048;4.686;2023-06-26T07:40:55;14.65;;;2.67;;
44139;SDS011;29803;51.048;4.686;2023-06-26T07:43:26;11.52;;;2.15;;
44139;SDS011;29803;51.048;4.686;2023-06-26T07:45:56;13.00;;;2.60;;
44139;SDS011;29803;51.048;4.686;2023-06-26T07:48:28;7.07;;;1.88;;
44139;SDS011;29803;51.048;4.686;2023-06-26T07:50:59;9.95;;;2.72;;
44139;SDS011;29803;51.048;4.686;2023-06-26T07:53:29;6.82;;;2.00;;
44139;SDS011;29803;51.048;4.686;2023-06-26T07:56:00;11.30;;;1.75;;
44139;SDS011;29803;51.048;4.686;2023-06-26T07:58:30;5.45;;;1.50;;
44139;SDS011;29803;51.048;4.686;2023-06-26T08:01:01;7.30;;;1.70;;
44139;SDS011;29803;51.048;4.686;2023-06-26T08:03:31;8.00;;;2.13;;
44139;SDS011;29803;51.048;4.686;2023-06-26T08:06:02;9.48;;;2.10;;
44139;SDS011;29803;51.048;4.686;2023-06-26T08:08:33;6.53;;;1.60;;
44139;SDS011;29803;51.048;4.686;2023-06-26T08:11:03;5.90;;;1.83;;
44139;SDS011;29803;51.048;4.686;2023-06-26T08:13:34;9.18;;;1.95;;
44139;SDS011;29803;51.048;4.686;2023-06-26T08:16:04;4.40;;;1.73;;
44139;SDS011;29803;51.048;4.686;2023-06-26T08:18:35;5.10;;;1.25;;
44139;SDS011;29803;51.048;4.686;2023-06-26T08:21:05;16.42;;;2.67;;
44139;SDS011;29803;51.048;4.686;2023-06-26T08:23:36;5.30;;;1.60;;
44139;SDS011;29803;51.048;4.686;2023-06-26T08:26:06;15.55;;;2.40;;
44139;SDS011;29803;51.048;4.686;2023-06-26T08:28:37;5.50;;;1.60;;
44139;SDS011;29803;51.048;4.686;2023-06-26T08:31:07;12.30;;;2.15;;
44139;SDS011;29803;51.048;4.686;2023-06-26T08:33:38;8.93;;;1.67;;
44139;SDS011;29803;51.048;4.686;2023-06-26T08:36:08;6.65;;;1.45;;
44139;SDS011;29803;51.048;4.686;2023-06-26T08:38:39;7.25;;;1.38;;
44139;SDS011;29803;51.048;4.686;2023-06-26T08:41:10;5.38;;;1.50;;
44139;SDS011;29803;51.048;4.686;2023-06-26T08:43:41;5.22;;;1.40;;
44139;SDS011;29803;51.048;4.686;2023-06-26T08:46:12;5.03;;;1.65;;
44139;SDS011;29803;51.048;4.686;2023-06-26T08:48:44;4.63;;;1.50;;
44139;SDS011;29803;51.048;4.686;2023-06-26T08:51:18;5.70;;;1.52;;
44139;SDS011;29803;51.048;4.686;2023-06-26T08:56:42;6.93;;;1.98;;
44139;SDS011;29803;51.048;4.686;2023-06-26T08:59:16;6.60;;;1.30;;
44139;SDS011;29803;51.048;4.686;2023-06-26T09:01:47;6.55;;;1.50;;
44139;SDS011;29803;51.048;4.686;2023-06-26T09:04:17;3.90;;;1.38;;
44139;SDS011;29803;51.048;4.686;2023-06-26T09:06:48;6.00;;;1.55;;
44139;SDS011;29803;51.048;4.686;2023-06-26T09:09:18;8.02;;;1.98;;
44139;SDS011;29803;51.048;4.686;2023-06-26T09:11:50;8.52;;;1.80;;
44139;SDS011;29803;51.048;4.686;2023-06-26T09:14:21;6.90;;;1.83;;
44139;SDS011;29803;51.048;4.686;2023-06-26T09:16:51;6.82;;;2.03;;
44139;SDS011;29803;51.048;4.686;2023-06-26T09:19:22;7.75;;;1.98;;
44139;SDS011;29803;51.048;4.686;2023-06-26T09:21:52;6.05;;;1.27;;
44139;SDS011;29803;51.048;4.686;2023-06-26T09:24:24;5.53;;;2.10;;
44139;SDS011;29803;51.048;4.686;2023-06-26T09:26:55;5.90;;;1.63;;
44139;SDS011;29803;51.048;4.686;2023-06-26T09:29:25;9.25;;;1.52;;
44139;SDS011;29803;51.048;4.686;2023-06-26T09:31:56;6.93;;;1.48;;
44139;SDS011;29803;51.048;4.686;2023-06-26T09:37:14;13.05;;;1.65;;
44139;SDS011;29803;51.048;4.686;2023-06-26T09:39:45;6.65;;;2.08;;
44139;SDS011;29803;51.048;4.686;2023-06-26T09:42:15;4.38;;;1.30;;
44139;SDS011;29803;51.048;4.686;2023-06-26T09:44:46;7.53;;;1.73;;
44139;SDS011;29803;51.048;4.686;2023-06-26T09:47:18;5.72;;;1.55;;
44139;SDS011;29803;51.048;4.686;2023-06-26T09:49:49;6.07;;;1.88;;
44139;SDS011;29803;51.048;4.686;2023-06-26T09:52:25;6.32;;;1.50;;
44139;SDS011;29803;51.048;4.686;2023-06-26T09:55:07;5.60;;;1.60;;
44139;SDS011;29803;51.048;4.686;2023-06-26T09:57:39;5.47;;;1.58;;
44139;SDS011;29803;51.048;4.686;2023-06-26T10:00:10;6.80;;;1.63;;
44139;SDS011;29803;51.048;4.686;2023-06-26T10:02:42;5.85;;;2.03;;
44139;SDS011;29803;51.048;4.686;2023-06-26T10:05:12;11.80;;;1.65;;
44139;SDS011;29803;51.048;4.686;2023-06-26T10:07:43;4.80;;;1.50;;
44139;SDS011;29803;51.048;4.686;2023-06-26T10:10:15;6.25;;;1.58;;
44139;SDS011;29803;51.048;4.686;2023-06-26T10:12:48;5.47;;;1.60;;
44139;SDS011;29803;51.048;4.686;2023-06-26T10:15:21;6.60;;;1.60;;
44139;SDS011;29803;51.048;4.686;2023-06-26T10:17:55;4.80;;;1.15;;
44139;SDS011;29803;51.048;4.686;2023-06-26T10:20:27;7.78;;;1.65;;
44139;SDS011;29803;51.048;4.686;2023-06-26T10:22:57;3.90;;;1.27;;
44139;SDS011;29803;51.048;4.686;2023-06-26T10:25:30;7.20;;;1.80;;
44139;SDS011;29803;51.048;4.686;2023-06-26T10:28:02;3.42;;;1.23;;
44139;SDS011;29803;51.048;4.686;2023-06-26T10:30:34;7.38;;;1.65;;
44139;SDS011;29803;51.048;4.686;2023-06-26T10:33:07;3.60;;;1.02;;
44139;SDS011;29803;51.048;4.686;2023-06-26T10:41:36;4.72;;;1.77;;
44139;SDS011;29803;51.048;4.686;2023-06-26T10:44:08;4.50;;;1.55;;
44139;SDS011;29803;51.048;4.686;2023-06-26T10:46:53;8.20;;;2.03;;
44139;SDS011;29803;51.048;4.686;2023-06-26T10:49:26;7.78;;;1.65;;
44139;SDS011;29803;51.048;4.686;2023-06-26T10:52:00;6.43;;;1.50;;
44139;SDS011;29803;51.048;4.686;2023-06-26T10:54:31;11.63;;;1.40;;
44139;SDS011;29803;51.048;4.686;2023-06-26T10:57:03;5.03;;;1.70;;
44139;SDS011;29803;51.048;4.686;2023-06-26T10:59:38;5.07;;;1.60;;
44139;SDS011;29803;51.048;4.686;2023-06-26T11:02:10;4.57;;;1.40;;
44139;SDS011;29803;51.048;4.686;2023-06-26T11:07:30;6.68;;;1.70;;
44139;SDS011;29803;51.048;4.686;2023-06-26T11:10:07;5.72;;;1.38;;
44139;SDS011;29803;51.048;4.686;2023-06-26T11:12:40;7.30;;;1.75;;
44139;SDS011;29803;51.048;4.686;2023-06-26T11:15:13;11.45;;;1.63;;
44139;SDS011;29803;51.048;4.686;2023-06-26T11:17:45;5.68;;;1.38;;
44139;SDS011;29803;51.048;4.686;2023-06-26T11:20:17;3.20;;;1.17;;
44139;SDS011;29803;51.048;4.686;2023-06-26T11:22:47;2.83;;;1.17;;
44139;SDS011;29803;51.048;4.686;2023-06-26T11:25:22;5.25;;;1.58;;
44139;SDS011;29803;51.048;4.686;2023-06-26T11:27:54;6.63;;;1.40;;
44139;SDS011;29803;51.048;4.686;2023-06-26T11:30:24;6.07;;;1.40;;
44139;SDS011;29803;51.048;4.686;2023-06-26T11:33:05;3.42;;;1.48;;
44139;SDS011;29803;51.048;4.686;2023-06-26T11:35:37;4.03;;;1.60;;
44139;SDS011;29803;51.048;4.686;2023-06-26T11:38:08;2.88;;;1.33;;
44139;SDS011;29803;51.048;4.686;2023-06-26T11:40:39;9.15;;;1.58;;
44139;SDS011;29803;51.048;4.686;2023-06-26T11:43:09;4.53;;;1.48;;
44139;SDS011;29803;51.048;4.686;2023-06-26T11:45:40;5.13;;;1.23;;
44139;SDS011;29803;51.048;4.686;2023-06-26T11:48:10;4.38;;;1.40;;
44139;SDS011;29803;51.048;4.686;2023-06-26T11:50:41;3.00;;;1.50;;
44139;SDS011;29803;51.048;4.686;2023-06-26T11:53:14;4.00;;;1.33;;
44139;SDS011;29803;51.048;4.686;2023-06-26T11:55:45;4.75;;;1.30;;
44139;SDS011;29803;51.048;4.686;2023-06-26T11:58:15;8.00;;;1.50;;
44139;SDS011;29803;51.048;4.686;2023-06-26T12:00:47;4.53;;;1.42;;
44139;SDS011;29803;51.048;4.686;2023-06-26T12:03:17;5.47;;;1.48;;
44139;SDS011;29803;51.048;4.686;2023-06-26T12:05:48;5.00;;;1.58;;
44139;SDS011;29803;51.048;4.686;2023-06-26T12:08:22;5.18;;;1.30;;
44139;SDS011;29803;51.048;4.686;2023-06-26T12:10:53;4.78;;;1.23;;
44139;SDS011;29803;51.048;4.686;2023-06-26T12:13:24;6.90;;;1.60;;
44139;SDS011;29803;51.048;4.686;2023-06-26T12:15:54;9.63;;;1.60;;
44139;SDS011;29803;51.048;4.686;2023-06-26T12:18:25;5.32;;;1.50;;
44139;SDS011;29803;51.048;4.686;2023-06-26T12:24:06;4.47;;;1.23;;
44139;SDS011;29803;51.048;4.686;2023-06-26T12:26:38;6.28;;;2.00;;
44139;SDS011;29803;51.048;4.686;2023-06-26T12:29:09;2.65;;;1.17;;
44139;SDS011;29803;51.048;4.686;2023-06-26T12:31:42;5.00;;;1.27;;
44139;SDS011;29803;51.048;4.686;2023-06-26T12:34:14;5.95;;;1.70;;
44139;SDS011;29803;51.048;4.686;2023-06-26T12:36:49;6.82;;;1.50;;
44139;SDS011;29803;51.048;4.686;2023-06-26T12:39:21;5.22;;;1.42;;
44139;SDS011;29803;51.048;4.686;2023-06-26T12:41:56;4.10;;;1.33;;
44139;SDS011;29803;51.048;4.686;2023-06-26T12:44:46;2.22;;;1.27;;
44139;SDS011;29803;51.048;4.686;2023-06-26T12:47:17;2.22;;;1.00;;
44139;SDS011;29803;51.048;4.686;2023-06-26T12:49:50;5.82;;;1.50;;
44139;SDS011;29803;51.048;4.686;2023-06-26T12:52:21;7.78;;;1.67;;
44139;SDS011;29803;51.048;4.686;2023-06-26T12:54:52;7.60;;;1.40;;
44139;SDS011;29803;51.048;4.686;2023-06-26T12:57:24;4.88;;;1.83;;
44139;SDS011;29803;51.048;4.686;2023-06-26T12:59:56;4.53;;;1.50;;
44139;SDS011;29803;51.048;4.686;2023-06-26T13:02:26;6.22;;;1.67;;
44139;SDS011;29803;51.048;4.686;2023-06-26T13:04:57;4.43;;;1.20;;
44139;SDS011;29803;51.048;4.686;2023-06-26T13:07:27;5.57;;;1.80;;
44139;SDS011;29803;51.048;4.686;2023-06-26T13:09:58;5.35;;;1.35;;
44139;SDS011;29803;51.048;4.686;2023-06-26T13:12:28;6.78;;;1.42;;
44139;SDS011;29803;51.048;4.686;2023-06-26T13:14:59;3.25;;;1.30;;
44139;SDS011;29803;51.048;4.686;2023-06-26T13:17:30;5.47;;;1.73;;
44139;SDS011;29803;51.048;4.686;2023-06-26T13:20:00;6.25;;;1.42;;
44139;SDS011;29803;51.048;4.686;2023-06-26T13:22:30;7.78;;;1.60;;
44139;SDS011;29803;51.048;4.686;2023-06-26T13:25:01;9.85;;;1.80;;
44139;SDS011;29803;51.048;4.686;2023-06-26T13:27:32;7.05;;;1.48;;
44139;SDS011;29803;51.048;4.686;2023-06-26T13:30:02;2.97;;;1.27;;
44139;SDS011;29803;51.048;4.686;2023-06-26T13:32:33;5.80;;;1.40;;
44139;SDS011;29803;51.048;4.686;2023-06-26T13:35:03;5.20;;;1.73;;
44139;SDS011;29803;51.048;4.686;2023-06-26T13:37:34;2.80;;;1.13;;
44139;SDS011;29803;51.048;4.686;2023-06-26T13:40:06;5.43;;;1.85;;
44139;SDS011;29803;51.048;4.686;2023-06-26T13:42:37;5.18;;;1.58;;
44139;SDS011;29803;51.048;4.686;2023-06-26T13:45:09;6.40;;;1.63;;
44139;SDS011;29803;51.048;4.686;2023-06-26T13:47:40;4.85;;;1.40;;
44139;SDS011;29803;51.048;4.686;2023-06-26T13:50:11;3.55;;;1.48;;
44139;SDS011;29803;51.048;4.686;2023-06-26T13:52:42;4.70;;;1.55;;
44139;SDS011;29803;51.048;4.686;2023-06-26T13:55:12;3.03;;;1.50;;
44139;SDS011;29803;51.048;4.686;2023-06-26T13:57:43;4.25;;;1.63;;
44139;SDS011;29803;51.048;4.686;2023-06-26T14:00:13;4.53;;;1.33;;
44139;SDS011;29803;51.048;4.686;2023-06-26T14:02:46;6.00;;;1.55;;
44139;SDS011;29803;51.048;4.686;2023-06-26T14:05:16;7.47;;;1.38;;
44139;SDS011;29803;51.048;4.686;2023-06-26T14:07:48;4.72;;;1.30;;
44139;SDS011;29803;51.048;4.686;2023-06-26T14:10:19;2.72;;;1.30;;
44139;SDS011;29803;51.048;4.686;2023-06-26T14:12:49;5.38;;;1.73;;
44139;SDS011;29803;51.048;4.686;2023-06-26T14:15:20;3.67;;;1.52;;
44139;SDS011;29803;51.048;4.686;2023-06-26T14:17:51;8.63;;;1.88;;
44139;SDS011;29803;51.048;4.686;2023-06-26T14:20:22;5.15;;;1.60;;
44139;SDS011;29803;51.048;4.686;2023-06-26T14:22:53;5.22;;;1.45;;
44139;SDS011;29803;51.048;4.686;2023-06-26T14:25:23;4.47;;;1.75;;
44139;SDS011;29803;51.048;4.686;2023-06-26T14:27:55;7.53;;;1.85;;
44139;SDS011;29803;51.048;4.686;2023-06-26T14:30:27;3.65;;;1.75;;
44139;SDS011;29803;51.048;4.686;2023-06-26T14:32:57;7.00;;;2.00;;
44139;SDS011;29803;51.048;4.686;2023-06-26T14:35:28;4.50;;;1.60;;
44139;SDS011;29803;51.048;4.686;2023-06-26T14:37:58;4.63;;;1.55;;
44139;SDS011;29803;51.048;4.686;2023-06-26T14:40:29;4.63;;;1.40;;
44139;SDS011;29803;51.048;4.686;2023-06-26T14:42:59;7.22;;;2.05;;
44139;SDS011;29803;51.048;4.686;2023-06-26T14:45:30;10.05;;;1.60;;
44139;SDS011;29803;51.048;4.686;2023-06-26T14:48:00;7.20;;;1.65;;
44139;SDS011;29803;51.048;4.686;2023-06-26T14:50:31;7.45;;;1.55;;
44139;SDS011;29803;51.048;4.686;2023-06-26T14:53:01;5.25;;;1.50;;
44139;SDS011;29803;51.048;4.686;2023-06-26T14:55:32;4.40;;;1.75;;
44139;SDS011;29803;51.048;4.686;2023-06-26T14:58:03;4.43;;;1.80;;
44139;SDS011;29803;51.048;4.686;2023-06-26T15:00:33;6.07;;;1.60;;
44139;SDS011;29803;51.048;4.686;2023-06-26T15:03:04;5.93;;;1.67;;
44139;SDS011;29803;51.048;4.686;2023-06-26T15:05:34;6.38;;;1.58;;
44139;SDS011;29803;51.048;4.686;2023-06-26T15:08:05;3.30;;;1.30;;
44139;SDS011;29803;51.048;4.686;2023-06-26T15:10:36;4.47;;;1.73;;
44139;SDS011;29803;51.048;4.686;2023-06-26T15:13:06;5.35;;;2.13;;
44139;SDS011;29803;51.048;4.686;2023-06-26T15:15:37;5.25;;;1.38;;
44139;SDS011;29803;51.048;4.686;2023-06-26T15:18:08;6.00;;;1.67;;
44139;SDS011;29803;51.048;4.686;2023-06-26T15:20:38;7.40;;;1.63;;
44139;SDS011;29803;51.048;4.686;2023-06-26T15:23:09;9.80;;;1.85;;
44139;SDS011;29803;51.048;4.686;2023-06-26T15:25:39;5.22;;;1.52;;
44139;SDS011;29803;51.048;4.686;2023-06-26T15:28:13;2.85;;;1.30;;
44139;SDS011;29803;51.048;4.686;2023-06-26T15:30:48;6.22;;;2.15;;
44139;SDS011;29803;51.048;4.686;2023-06-26T15:33:19;5.13;;;1.60;;